createdAt,value
2022-10-18T00:02:03.218Z,4.96
2022-10-18T00:04:33.835Z,4.90
2022-10-18T00:07:02.623Z,4.90
2022-10-18T00:09:33.490Z,4.80
2022-10-18T00:12:03.366Z,4.86
2022-10-18T00:14:32.094Z,4.75
2022-10-18T00:17:00.780Z,4.76
2022-10-18T00:19:29.608Z,4.74
2022-10-18T00:21:58.285Z,4.76
2022-10-18T00:24:26.952Z,4.66
2022-10-18T00:26:55.550Z,4.66
2022-10-18T00:29:53.970Z,4.62
2022-10-18T00:32:23.024Z,4.13
2022-10-18T00:34:51.749Z,4.50
2022-10-18T00:37:20.855Z,4.51
2022-10-18T00:39:49.619Z,4.58
2022-10-18T00:42:20.396Z,4.58
2022-10-18T00:44:52.071Z,4.58
2022-10-18T00:47:30.516Z,4.58
2022-10-18T00:49:58.991Z,4.64
2022-10-18T00:52:39.256Z,4.60
2022-10-18T00:55:09.717Z,4.61
2022-10-18T00:57:40.493Z,4.57
2022-10-18T01:00:10.129Z,4.61
2022-10-18T01:02:39.913Z,4.44
2022-10-18T01:05:09.541Z,4.36
2022-10-18T01:07:52.382Z,4.38
2022-10-18T01:10:40.485Z,4.33
2022-10-18T01:13:25.813Z,4.36
2022-10-18T01:16:25.519Z,4.27
2022-10-18T01:18:59.671Z,4.30
2022-10-18T01:21:36.911Z,4.24
2022-10-18T01:24:28.132Z,4.23
2022-10-18T01:27:20.601Z,4.26
2022-10-18T01:30:04.111Z,4.13
2022-10-18T01:32:35.690Z,4.05
2022-10-18T01:35:07.321Z,4.03
2022-10-18T01:37:37.606Z,3.98
2022-10-18T01:40:08.834Z,3.97
2022-10-18T01:42:37.445Z,4.07
2022-10-18T01:45:08.149Z,3.97
2022-10-18T01:47:37.219Z,3.97
2022-10-18T01:50:07.765Z,4.02
2022-10-18T01:52:36.435Z,4.04
2022-10-18T01:55:05.554Z,4.04
2022-10-18T01:58:07.148Z,4.03
2022-10-18T02:00:42.161Z,4.09
2022-10-18T02:03:25.545Z,3.99
2022-10-18T02:06:12.397Z,4.01
2022-10-18T02:08:49.936Z,3.95
2022-10-18T02:11:19.489Z,4.00
2022-10-18T02:13:51.024Z,3.99
2022-10-18T02:16:22.681Z,3.92
2022-10-18T02:18:59.937Z,3.99
2022-10-18T02:21:30.659Z,3.96
2022-10-18T02:24:02.309Z,3.97
2022-10-18T02:26:31.551Z,3.93
2022-10-18T02:29:00.562Z,3.92
2022-10-18T02:31:42.115Z,3.86
2022-10-18T02:34:13.669Z,3.85
2022-10-18T02:36:45.240Z,3.79
2022-10-18T02:39:16.791Z,3.72
2022-10-18T02:41:45.546Z,3.68
2022-10-18T02:44:16.904Z,3.75
2022-10-18T02:46:46.665Z,3.63
2022-10-18T02:49:15.315Z,3.62
2022-10-18T02:51:43.985Z,3.49
2022-10-18T02:54:12.646Z,3.44
2022-10-18T02:56:41.382Z,3.45
2022-10-18T02:59:10.093Z,3.46
2022-10-18T03:01:38.788Z,3.42
2022-10-18T03:04:07.554Z,3.33
2022-10-18T03:06:36.469Z,3.37
2022-10-18T03:09:06.901Z,3.43
2022-10-18T03:11:35.543Z,3.31
2022-10-18T03:14:04.208Z,3.24
2022-10-18T03:16:34.031Z,3.37
2022-10-18T03:19:02.643Z,3.34
2022-10-18T03:21:31.234Z,3.30
2022-10-18T03:23:59.931Z,3.32
2022-10-18T03:26:28.557Z,3.31
2022-10-18T03:28:57.367Z,3.35
2022-10-18T03:31:26.021Z,3.31
2022-10-18T03:33:54.634Z,3.38
2022-10-18T03:36:23.200Z,3.26
2022-10-18T03:38:51.885Z,3.28
2022-10-18T03:41:20.987Z,3.34
2022-10-18T03:43:51.084Z,3.36
2022-10-18T03:46:20.885Z,3.34
2022-10-18T03:48:49.449Z,3.36
2022-10-18T03:51:18.000Z,3.34
2022-10-18T03:53:46.595Z,3.33
2022-10-18T03:56:17.241Z,3.25
2022-10-18T03:58:45.739Z,3.32
2022-10-18T04:01:14.425Z,3.26
2022-10-18T04:03:43.077Z,3.19
2022-10-18T04:06:11.713Z,3.22
2022-10-18T04:08:40.398Z,3.11
2022-10-18T04:11:10.971Z,3.24
2022-10-18T04:13:39.734Z,3.16
2022-10-18T04:16:08.402Z,3.13
2022-10-18T04:18:37.076Z,3.16
2022-10-18T04:21:05.743Z,3.12
2022-10-18T04:23:37.881Z,3.17
2022-10-18T04:26:04.794Z,3.17
2022-10-18T04:28:34.446Z,3.17
2022-10-18T04:31:03.160Z,3.13
2022-10-18T04:33:31.683Z,3.09
2022-10-18T04:36:02.999Z,3.05
2022-10-18T04:38:31.635Z,2.98
2022-10-18T04:41:00.316Z,2.94
2022-10-18T04:43:28.988Z,2.96
2022-10-18T04:45:57.590Z,2.98
2022-10-18T04:48:26.249Z,2.93
2022-10-18T04:50:54.878Z,2.92
2022-10-18T04:53:23.448Z,2.97
2022-10-18T04:55:52.480Z,3.03
2022-10-18T04:58:21.222Z,3.03
2022-10-18T05:00:50.679Z,3.00
2022-10-18T05:03:19.533Z,3.03
2022-10-18T05:06:01.226Z,3.04
2022-10-18T05:08:18.554Z,3.09
2022-10-18T05:10:47.916Z,3.16
2022-10-18T05:13:18.064Z,3.16
2022-10-18T05:15:48.075Z,3.25
2022-10-18T05:18:16.662Z,3.41
2022-10-18T05:20:45.341Z,3.40
2022-10-18T05:23:14.013Z,3.56
2022-10-18T05:25:45.903Z,3.60
2022-10-18T05:28:38.234Z,3.64
2022-10-18T05:30:45.225Z,3.68
2022-10-18T05:33:13.804Z,3.74
2022-10-18T05:35:42.693Z,3.83
2022-10-18T05:38:11.344Z,3.96
2022-10-18T05:40:40.744Z,4.05
2022-10-18T05:43:09.406Z,4.22
2022-10-18T05:45:38.039Z,4.21
2022-10-18T05:48:07.902Z,4.23
2022-10-18T05:50:39.541Z,4.17
2022-10-18T05:53:11.976Z,4.14
2022-10-18T05:55:37.190Z,4.27
2022-10-18T05:58:05.940Z,4.34
2022-10-18T06:00:34.661Z,4.45
2022-10-18T06:03:03.220Z,4.57
2022-10-18T06:05:31.904Z,4.69
2022-10-18T06:08:00.592Z,4.91
2022-10-18T06:10:29.179Z,4.99
2022-10-18T06:12:57.794Z,5.02
2022-10-18T06:15:26.361Z,5.11
2022-10-18T06:17:55.106Z,5.19
2022-10-18T06:20:23.698Z,5.35
2022-10-18T06:22:55.497Z,5.52
2022-10-18T06:25:24.296Z,5.69
2022-10-18T06:27:52.984Z,5.80
2022-10-18T06:30:21.575Z,5.87
2022-10-18T06:32:53.024Z,6.01
2022-10-18T06:35:21.635Z,6.15
2022-10-18T06:37:50.228Z,6.28
2022-10-18T06:40:20.037Z,6.03
2022-10-18T06:43:00.018Z,6.47
2022-10-18T06:45:20.605Z,6.44
2022-10-18T06:47:52.009Z,6.72
2022-10-18T06:50:20.580Z,6.92
2022-10-18T06:52:50.718Z,6.84
2022-10-18T06:55:19.383Z,6.95
2022-10-18T06:57:48.139Z,7.03
2022-10-18T07:00:16.916Z,7.07
2022-10-18T07:02:45.484Z,7.20
2022-10-18T07:05:14.159Z,7.30
2022-10-18T07:07:42.860Z,7.42
2022-10-18T07:10:13.097Z,7.56
2022-10-18T07:12:41.910Z,7.71
2022-10-18T07:15:11.097Z,7.77
2022-10-18T07:17:39.731Z,7.80
2022-10-18T07:20:08.724Z,7.86
2022-10-18T07:22:38.272Z,8.08
2022-10-18T07:25:07.506Z,8.19
2022-10-18T07:27:43.840Z,7.81
2022-10-18T07:30:15.647Z,7.95
2022-10-18T07:32:44.338Z,7.90
2022-10-18T07:35:13.150Z,8.05
2022-10-18T07:37:41.803Z,8.22
2022-10-18T07:40:12.474Z,8.26
2022-10-18T07:42:41.113Z,8.28
2022-10-18T07:45:11.910Z,8.15
2022-10-18T07:47:42.298Z,8.41
2022-10-18T07:50:16.637Z,8.56
2022-10-18T07:52:46.266Z,8.70
2022-10-18T07:55:15.154Z,8.87
2022-10-18T07:57:43.915Z,9.18
2022-10-18T08:00:14.351Z,9.15
2022-10-18T08:05:55.169Z,9.26
2022-10-18T08:08:29.154Z,9.70
2022-10-18T08:10:59.446Z,9.95
2022-10-18T08:13:28.174Z,10.05
2022-10-18T08:16:01.686Z,10.06
2022-10-18T08:18:31.955Z,10.14
2022-10-18T08:21:05.275Z,10.39
2022-10-18T08:23:34.371Z,10.48
2022-10-18T08:26:05.228Z,10.58
2022-10-18T08:28:35.804Z,10.55
2022-10-18T08:31:09.923Z,10.90
2022-10-18T08:33:39.655Z,10.86
2022-10-18T08:36:10.897Z,10.83
2022-10-18T08:38:41.428Z,11.14
2022-10-18T08:41:40.135Z,11.24
2022-10-18T08:44:24.161Z,11.50
2022-10-18T08:46:55.811Z,11.72
2022-10-18T08:49:47.083Z,11.95
2022-10-18T08:52:21.855Z,12.12
2022-10-18T08:55:09.194Z,12.33
2022-10-18T08:57:39.438Z,12.43
2022-10-18T09:00:12.579Z,12.63
2022-10-18T09:03:01.056Z,12.73
2022-10-18T09:05:36.183Z,12.64
2022-10-18T09:08:19.819Z,12.61
2022-10-18T09:11:10.991Z,12.64
2022-10-18T09:14:06.234Z,12.84
2022-10-18T09:16:40.828Z,12.90
2022-10-18T09:19:15.337Z,13.08
2022-10-18T09:21:56.154Z,13.27
2022-10-18T09:24:30.452Z,13.10
2022-10-18T09:27:02.271Z,13.08
2022-10-18T09:29:54.702Z,13.22
2022-10-18T09:32:41.533Z,13.32
2022-10-18T09:35:25.438Z,13.60
2022-10-18T09:37:59.896Z,13.85
2022-10-18T09:40:34.446Z,13.84
2022-10-18T09:43:14.986Z,14.08
2022-10-18T09:45:46.487Z,14.13
2022-10-18T09:48:24.297Z,14.23
2022-10-18T09:51:13.411Z,14.27
2022-10-18T09:54:04.935Z,14.42
2022-10-18T09:56:39.449Z,14.45
2022-10-18T09:59:11.406Z,14.71
2022-10-18T10:01:41.919Z,14.80
2022-10-18T10:04:12.444Z,14.88
2022-10-18T10:06:44.176Z,14.93
2022-10-18T10:09:18.951Z,15.15
2022-10-18T10:11:53.471Z,15.18
2022-10-18T10:14:28.287Z,15.48
2022-10-18T10:17:05.991Z,15.57
2022-10-18T10:19:40.526Z,15.79
2022-10-18T10:22:15.665Z,15.84
2022-10-18T10:28:49.750Z,16.22
2022-10-18T10:31:30.153Z,16.36
2022-10-18T10:34:17.788Z,16.40
2022-10-18T10:36:55.241Z,16.52
2022-10-18T10:39:28.513Z,16.64
2022-10-18T10:42:01.897Z,16.83
2022-10-18T10:44:33.486Z,16.80
2022-10-18T10:47:02.203Z,16.94
2022-10-18T10:49:42.617Z,16.98
2022-10-18T10:52:27.265Z,16.94
2022-10-18T10:55:05.882Z,17.02
2022-10-18T10:57:28.958Z,17.12
2022-10-18T11:00:00.347Z,17.32
2022-10-18T11:02:36.793Z,17.51
2022-10-18T11:05:27.104Z,17.52
2022-10-18T11:08:04.006Z,17.53
2022-10-18T11:10:38.681Z,17.43
2022-10-18T11:13:26.500Z,17.43
2022-10-18T11:15:59.453Z,17.49
2022-10-18T11:18:48.165Z,17.60
2022-10-18T11:21:19.923Z,17.59
2022-10-18T11:23:48.620Z,17.67
2022-10-18T11:26:29.236Z,17.67
2022-10-18T11:29:23.865Z,17.81
2022-10-18T11:31:55.495Z,17.90
2022-10-18T11:34:29.855Z,17.98
2022-10-18T11:37:26.287Z,17.93
2022-10-18T11:40:00.089Z,18.06
2022-10-18T11:42:43.769Z,18.04
2022-10-18T11:45:18.192Z,18.11
2022-10-18T11:47:52.315Z,17.99
2022-10-18T11:50:32.318Z,18.08
2022-10-18T11:56:24.615Z,18.09
2022-10-18T11:59:15.393Z,18.02
2022-10-18T12:02:04.538Z,18.05
2022-10-18T12:04:53.059Z,18.13
2022-10-18T12:07:27.731Z,18.27
2022-10-18T12:10:03.410Z,18.26
2022-10-18T12:12:56.076Z,18.31
2022-10-18T12:15:28.973Z,18.27
2022-10-18T12:18:03.470Z,18.27
2022-10-18T12:20:38.046Z,18.29
2022-10-18T12:23:21.025Z,18.30
2022-10-18T12:25:57.989Z,18.25
2022-10-18T12:31:54.315Z,18.59
2022-10-18T12:34:27.557Z,18.59
2022-10-18T12:37:19.098Z,18.56
2022-10-18T12:40:11.465Z,18.55
2022-10-18T12:42:39.906Z,18.59
2022-10-18T12:45:17.075Z,18.63
2022-10-18T12:47:50.105Z,18.56
2022-10-18T12:50:35.131Z,18.51
2022-10-18T12:53:07.036Z,18.50
2022-10-18T12:55:38.918Z,18.48
2022-10-18T12:58:13.848Z,18.50
2022-10-18T13:00:46.044Z,18.53
2022-10-18T13:03:21.584Z,18.47
2022-10-18T13:05:56.557Z,18.46
2022-10-18T13:08:34.690Z,18.49
2022-10-18T13:11:12.126Z,18.53
2022-10-18T13:13:50.950Z,18.53
2022-10-18T13:16:32.794Z,18.46
2022-10-18T13:19:23.214Z,18.53
2022-10-18T13:22:00.504Z,18.52
2022-10-18T13:24:47.110Z,18.44
2022-10-18T13:27:42.414Z,18.40
2022-10-18T13:30:13.070Z,18.39
2022-10-18T13:33:13.491Z,18.44
2022-10-18T13:35:48.939Z,18.41
2022-10-18T13:38:41.542Z,18.43
2022-10-18T13:41:16.486Z,18.43
2022-10-18T13:43:52.968Z,18.30
2022-10-18T13:46:29.544Z,18.29
2022-10-18T13:49:38.092Z,18.28
2022-10-18T13:52:28.952Z,18.16
2022-10-18T13:55:22.857Z,18.03
2022-10-18T13:58:05.639Z,18.13
2022-10-18T14:00:56.754Z,18.06
2022-10-18T14:03:58.710Z,18.06
2022-10-18T14:06:30.263Z,18.00
2022-10-18T14:09:26.400Z,18.00
2022-10-18T14:11:55.461Z,18.01
2022-10-18T14:14:38.365Z,17.91
2022-10-18T14:17:18.628Z,17.82
2022-10-18T14:20:06.228Z,17.79
2022-10-18T14:22:41.187Z,17.78
2022-10-18T14:25:35.622Z,17.69
2022-10-18T14:28:27.410Z,17.55
2022-10-18T14:31:09.174Z,17.46
2022-10-18T14:33:41.537Z,17.39
2022-10-18T14:36:16.020Z,17.30
2022-10-18T14:38:53.899Z,17.16
2022-10-18T14:41:28.516Z,17.04
2022-10-18T14:44:17.576Z,17.12
2022-10-18T14:46:51.780Z,17.01
2022-10-18T14:49:22.502Z,17.04
2022-10-18T14:51:56.992Z,16.96
2022-10-18T14:54:36.393Z,16.88
2022-10-18T14:57:08.534Z,16.75
2022-10-18T14:59:46.328Z,16.66
2022-10-18T15:02:24.237Z,16.67
2022-10-18T15:05:09.873Z,16.62
2022-10-18T15:07:49.462Z,16.55
2022-10-18T15:10:27.549Z,16.35
2022-10-18T15:13:10.929Z,16.10
2022-10-18T15:15:36.031Z,15.89
2022-10-18T15:18:08.787Z,15.68
2022-10-18T15:20:43.543Z,15.42
2022-10-18T15:23:27.126Z,15.19
2022-10-18T15:26:05.047Z,15.02
2022-10-18T15:28:36.708Z,14.79
2022-10-18T15:31:06.992Z,14.97
2022-10-18T15:33:35.916Z,14.70
2022-10-18T15:36:17.683Z,14.46
2022-10-18T15:38:49.194Z,14.37
2022-10-18T15:41:42.394Z,14.21
2022-10-18T15:44:20.015Z,13.93
2022-10-18T15:46:49.734Z,13.75
2022-10-18T15:49:54.582Z,13.59
2022-10-18T15:52:27.906Z,13.45
2022-10-18T15:54:57.357Z,13.32
2022-10-18T15:57:29.124Z,13.26
2022-10-18T16:00:02.776Z,13.29
2022-10-18T16:02:32.015Z,13.20
2022-10-18T16:05:03.577Z,13.03
2022-10-18T16:07:32.478Z,12.86
2022-10-18T16:10:01.436Z,12.67
2022-10-18T16:12:29.981Z,12.50
2022-10-18T16:15:05.134Z,12.36
2022-10-18T16:18:09.266Z,12.24
2022-10-18T16:47:49.482Z,11.01
2022-10-18T16:50:22.050Z,10.93
2022-10-18T16:52:51.266Z,10.91
2022-10-18T16:55:27.793Z,10.87
2022-10-18T16:58:09.052Z,10.88
2022-10-18T17:00:43.283Z,10.76
2022-10-18T17:03:16.450Z,10.75
2022-10-18T17:05:48.092Z,10.76
2022-10-18T17:08:23.128Z,10.72
2022-10-18T17:10:55.304Z,10.75
2022-10-18T17:13:25.276Z,10.73
2022-10-18T17:15:55.682Z,10.74
2022-10-18T17:18:32.959Z,10.57
2022-10-18T17:21:03.595Z,10.43
2022-10-18T17:23:39.008Z,10.39
2022-10-18T17:26:45.561Z,10.40
2022-10-18T17:35:26.495Z,10.12
2022-10-18T17:37:55.275Z,10.19
2022-10-18T17:40:25.626Z,10.02
2022-10-18T17:46:20.597Z,9.90
2022-10-18T17:52:07.153Z,9.84
2022-10-18T17:54:36.041Z,9.76
2022-10-18T18:00:39.244Z,9.72
2022-10-18T18:03:06.424Z,9.66
2022-10-18T18:05:42.440Z,9.55
2022-10-18T18:12:16.593Z,9.49
2022-10-18T18:14:51.763Z,9.34
2022-10-18T18:20:32.399Z,9.23
2022-10-18T18:23:26.411Z,9.20
2022-10-18T18:26:03.972Z,9.12
2022-10-18T18:28:33.172Z,9.16
2022-10-18T19:24:06.138Z,7.98
2022-10-18T19:26:42.610Z,7.87
2022-10-18T19:29:14.629Z,7.90
2022-10-18T19:31:43.874Z,7.89
2022-10-18T19:34:14.350Z,7.91
2022-10-18T19:36:45.224Z,7.89
2022-10-18T19:39:18.425Z,7.71
2022-10-18T19:41:50.765Z,7.61
2022-10-18T19:44:20.458Z,7.62
2022-10-18T19:46:50.296Z,7.56
2022-10-18T19:49:19.081Z,7.55
2022-10-18T19:51:47.950Z,7.42
2022-10-18T20:11:25.861Z,7.19
2022-10-18T20:13:55.119Z,7.12
2022-10-18T20:16:28.400Z,7.18
2022-10-18T21:04:38.803Z,6.30
2022-10-18T21:07:08.296Z,6.29
2022-10-18T21:09:36.881Z,6.26
2022-10-18T21:12:07.285Z,6.34
2022-10-18T21:14:35.858Z,6.26
2022-10-18T21:17:04.549Z,6.21
2022-10-18T21:19:33.344Z,6.23
2022-10-18T21:24:59.208Z,6.23
2022-10-18T21:27:27.927Z,6.19
2022-10-18T21:29:56.538Z,6.14
2022-10-18T21:32:25.225Z,6.05
2022-10-18T21:34:53.820Z,5.99
2022-10-18T21:37:22.381Z,5.87
2022-10-18T21:39:51.031Z,5.92
2022-10-18T21:42:22.150Z,5.84
2022-10-18T21:44:53.255Z,5.85
2022-10-18T21:47:21.830Z,5.72
2022-10-18T21:49:54.082Z,5.65
2022-10-18T21:52:22.692Z,5.67
2022-10-18T21:54:51.217Z,5.57
2022-10-18T21:57:21.206Z,5.57
2022-10-18T21:59:49.877Z,5.51
2022-10-18T22:02:18.384Z,5.42
2022-10-18T22:04:47.033Z,5.42
2022-10-18T22:07:15.652Z,5.43
2022-10-18T22:09:44.208Z,5.14
2022-10-18T22:12:12.855Z,5.33
2022-10-18T22:14:41.440Z,5.34
2022-10-18T22:17:10.011Z,5.32
2022-10-18T22:19:38.783Z,5.27
2022-10-18T22:22:07.356Z,5.30
2022-10-18T22:27:04.777Z,5.29
2022-10-18T22:29:33.443Z,5.24
2022-10-18T22:32:02.031Z,5.29
2022-10-18T22:34:30.706Z,5.20
2022-10-18T22:36:59.292Z,5.12
2022-10-18T22:39:27.786Z,5.21
2022-10-18T22:41:57.367Z,5.19
2022-10-18T22:44:30.511Z,5.27
2022-10-18T22:46:59.070Z,5.21
2022-10-18T22:49:27.689Z,5.28
2022-10-18T22:51:56.298Z,5.24
2022-10-18T22:54:24.913Z,5.21
2022-10-18T22:56:53.502Z,5.17
2022-10-18T22:59:22.173Z,5.13
2022-10-18T23:01:50.832Z,5.12
2022-10-18T23:04:19.486Z,5.14
2022-10-18T23:06:48.115Z,5.04
2022-10-18T23:09:16.633Z,4.98
2022-10-18T23:11:47.087Z,4.94
2022-10-18T23:14:15.658Z,4.87
2022-10-18T23:16:44.872Z,4.87
2022-10-18T23:19:16.048Z,4.81
2022-10-18T23:21:44.680Z,4.79
2022-10-18T23:24:13.366Z,4.74
2022-10-18T23:26:42.001Z,4.71
2022-10-18T23:29:10.812Z,4.70
2022-10-18T23:31:40.993Z,4.65
2022-10-18T23:34:10.550Z,4.61
2022-10-18T23:36:39.247Z,4.62
2022-10-18T23:39:07.872Z,4.57
2022-10-18T23:41:38.755Z,4.59
2022-10-18T23:44:08.570Z,4.56
2022-10-18T23:46:37.211Z,4.54
2022-10-18T23:49:05.957Z,4.58
2022-10-18T23:51:34.542Z,4.57
2022-10-18T23:54:03.121Z,4.53
2022-10-18T23:56:31.727Z,4.53
2022-10-18T23:59:00.279Z,4.48
